Time;durP1;ratioP1;P1;durP2;ratioP2;P2;SDS_P1;SDS_P2;PMS_P1;PMS_P2;Temp;Humidity;BMP_temperature;BMP_pressure;BME280_temperature;BME280_humidity;BME280_pressure;Samples;Min_cycle;Max_cycle;Signal;HPM_P1;HPM_P2
2022/11/09 00:00:07;;;;;;;;;;;20.30;69.00;;;;;;4994999;28;20001;-58
2022/11/09 00:02:33;;;;;;;;;;;20.30;69.00;;;;;;4994958;28;19926;-58
2022/11/09 00:04:58;;;;;;;;;;;20.30;69.00;;;;;;4994252;28;20002;-59
2022/11/09 00:07:24;;;;;;;;;;;20.30;69.00;;;;;;4993088;28;19925;-59
2022/11/09 00:09:49;;;;;;;;;;;20.30;69.00;;;;;;4994450;28;20274;-59
2022/11/09 00:12:15;;;;;;;;;;;20.30;69.00;;;;;;4993758;28;19926;-59
2022/11/09 00:14:40;;;;;;;;;;;20.20;68.90;;;;;;4993807;28;19926;-59
2022/11/09 00:17:05;;;;;;;;;;;20.20;68.90;;;;;;4995032;28;19932;-58
2022/11/09 00:19:31;;;;;;;;;;;20.20;69.00;;;;;;4992434;28;19937;-59
2022/11/09 00:21:56;;;;;;;;;;;20.20;68.90;;;;;;4994478;28;19992;-59
2022/11/09 00:24:22;;;;;;;;;;;20.20;68.90;;;;;;4994035;28;19933;-59
2022/11/09 00:26:48;;;;;;;;;;;20.20;68.90;;;;;;4994652;28;20496;-59
2022/11/09 00:29:13;;;;;;;;;;;20.20;68.90;;;;;;4994418;28;20297;-58
2022/11/09 00:31:39;;;;;;;;;;;20.20;69.00;;;;;;4993918;28;20341;-58
2022/11/09 00:34:04;;;;;;;;;;;20.20;68.90;;;;;;4994235;28;19928;-59
2022/11/09 00:36:30;;;;;;;;;;;20.20;68.90;;;;;;4994072;28;19937;-59
2022/11/09 00:38:56;;;;;;;;;;;20.20;68.90;;;;;;4994051;28;20008;-59
2022/11/09 00:41:22;;;;;;;;;;;20.20;68.90;;;;;;4993704;28;20020;-58
2022/11/09 00:43:47;;;;;;;;;;;20.20;68.90;;;;;;4994470;28;20008;-59
2022/11/09 00:46:13;;;;;;;;;;;20.10;68.90;;;;;;4993586;28;19929;-59
2022/11/09 00:48:38;;;;;;;;;;;20.10;68.90;;;;;;4993825;28;19972;-58
2022/11/09 00:51:04;;;;;;;;;;;20.10;68.90;;;;;;4994151;28;19972;-58
2022/11/09 00:53:29;;;;;;;;;;;20.20;69.50;;;;;;4993497;28;19925;-59
2022/11/09 00:55:58;;;;;;;;;;;20.10;68.90;;;;;;4993694;28;19937;-58
2022/11/09 00:58:24;;;;;;;;;;;20.10;68.90;;;;;;4993969;28;20373;-58
2022/11/09 01:00:50;;;;;;;;;;;20.10;68.90;;;;;;4993714;28;19925;-59
2022/11/09 01:03:16;;;;;;;;;;;20.10;68.90;;;;;;4993623;28;20456;-59
2022/11/09 01:05:41;;;;;;;;;;;20.10;68.90;;;;;;4993709;28;19930;-59
2022/11/09 01:08:07;;;;;;;;;;;20.10;68.90;;;;;;4993400;28;20000;-59
2022/11/09 01:10:32;;;;;;;;;;;20.10;68.90;;;;;;4993398;28;19933;-59
2022/11/09 01:12:58;;;;;;;;;;;20.00;68.80;;;;;;4993698;28;19933;-59
2022/11/09 01:15:23;;;;;;;;;;;20.10;68.90;;;;;;4992962;28;19926;-59
2022/11/09 01:17:49;;;;;;;;;;;20.10;68.90;;;;;;4992527;28;20393;-59
2022/11/09 01:20:15;;;;;;;;;;;20.10;68.90;;;;;;4993227;28;19932;-59
2022/11/09 01:22:40;;;;;;;;;;;20.10;68.90;;;;;;4992974;28;19926;-59
2022/11/09 01:25:06;;;;;;;;;;;20.10;68.90;;;;;;4993622;28;20024;-59
2022/11/09 01:27:31;;;;;;;;;;;20.00;68.80;;;;;;4993374;28;19930;-59
2022/11/09 01:29:57;;;;;;;;;;;20.10;68.90;;;;;;4992907;28;20286;-58
2022/11/09 01:32:23;;;;;;;;;;;20.00;68.80;;;;;;4993395;28;20016;-59
2022/11/09 01:34:48;;;;;;;;;;;20.00;68.80;;;;;;4992747;28;19980;-58
2022/11/09 01:37:13;;;;;;;;;;;20.00;68.80;;;;;;4992894;28;19926;-59
2022/11/09 01:39:39;;;;;;;;;;;20.00;68.80;;;;;;4993117;28;19964;-59
2022/11/09 01:42:04;;;;;;;;;;;20.00;68.80;;;;;;4992795;28;19926;-59
2022/11/09 01:44:30;;;;;;;;;;;20.00;68.80;;;;;;4993001;28;20041;-58
2022/11/09 01:46:56;;;;;;;;;;;20.00;68.80;;;;;;4992173;28;19969;-58
2022/11/09 01:49:29;;;;;;;;;;;20.00;68.90;;;;;;4992157;28;20448;-59
2022/11/09 01:51:59;;;;;;;;;;;20.00;68.80;;;;;;4993056;28;19929;-58
2022/11/09 01:54:25;;;;;;;;;;;20.00;68.80;;;;;;4991917;28;19934;-59
2022/11/09 01:56:52;;;;;;;;;;;20.00;68.80;;;;;;4992754;28;19926;-59
2022/11/09 01:59:19;;;;;;;;;;;20.00;68.80;;;;;;4992961;28;19925;-59
2022/11/09 02:01:45;;;;;;;;;;;20.00;68.80;;;;;;4992076;28;19926;-59
2022/11/09 02:04:21;;;;;;;;;;;20.00;68.80;;;;;;4992436;28;19933;-59
2022/11/09 02:06:47;;;;;;;;;;;20.00;68.80;;;;;;4992880;28;20288;-59
2022/11/09 02:09:12;;;;;;;;;;;20.00;68.80;;;;;;4991535;28;19926;-59
2022/11/09 02:11:38;;;;;;;;;;;20.00;68.80;;;;;;4991163;28;19926;-59
2022/11/09 02:14:03;;;;;;;;;;;19.90;68.80;;;;;;4991289;28;19921;-59
2022/11/09 02:16:29;;;;;;;;;;;19.90;68.80;;;;;;4991513;28;19981;-59
2022/11/09 02:18:56;;;;;;;;;;;19.90;68.70;;;;;;4992546;28;19922;-59
2022/11/09 02:21:21;;;;;;;;;;;19.90;68.80;;;;;;4992811;28;19929;-59
2022/11/09 02:23:47;;;;;;;;;;;19.90;68.80;;;;;;4993021;28;19926;-59
2022/11/09 02:26:14;;;;;;;;;;;19.90;68.70;;;;;;4991907;28;19929;-59
2022/11/09 02:28:40;;;;;;;;;;;19.90;68.80;;;;;;4991693;28;20017;-59
2022/11/09 02:31:07;;;;;;;;;;;19.90;68.70;;;;;;4991283;28;19929;-59
2022/11/09 02:33:51;;;;;;;;;;;19.90;68.70;;;;;;4991162;28;19980;-59
2022/11/09 02:36:16;;;;;;;;;;;19.90;68.80;;;;;;4992579;28;19930;-58
2022/11/09 02:38:42;;;;;;;;;;;19.90;68.70;;;;;;4994815;28;19926;-58
2022/11/09 02:41:07;;;;;;;;;;;19.90;68.70;;;;;;4996346;28;20369;-59
2022/11/09 02:43:33;;;;;;;;;;;19.90;68.80;;;;;;4996033;28;19925;-59
2022/11/09 02:45:59;;;;;;;;;;;19.90;69.30;;;;;;4996138;28;19930;-59
2022/11/09 02:48:24;;;;;;;;;;;19.90;68.80;;;;;;4996088;28;20372;-58
2022/11/09 02:50:50;;;;;;;;;;;19.90;68.80;;;;;;4996295;28;19933;-58
2022/11/09 02:53:15;;;;;;;;;;;19.90;68.80;;;;;;4995582;28;19933;-59
2022/11/09 02:55:41;;;;;;;;;;;19.90;68.80;;;;;;4996259;28;20468;-58
2022/11/09 02:58:06;;;;;;;;;;;19.90;68.80;;;;;;4996034;28;19930;-58
2022/11/09 03:00:31;;;;;;;;;;;19.90;68.80;;;;;;4995199;28;19934;-58
2022/11/09 03:02:57;;;;;;;;;;;19.90;68.80;;;;;;4998853;28;19932;-58
2022/11/09 03:05:22;;;;;;;;;;;19.90;68.70;;;;;;4993533;28;19926;-59
2022/11/09 03:07:48;;;;;;;;;;;19.90;68.80;;;;;;4993615;28;19925;-59
2022/11/09 03:10:13;;;;;;;;;;;19.80;68.70;;;;;;4995794;28;20385;-58
2022/11/09 03:12:39;;;;;;;;;;;19.80;68.70;;;;;;4994351;28;19926;-58
2022/11/09 03:15:05;;;;;;;;;;;19.80;68.70;;;;;;4993649;28;19975;-58
2022/11/09 03:17:31;;;;;;;;;;;19.80;68.70;;;;;;4994843;28;19937;-58
2022/11/09 03:19:56;;;;;;;;;;;19.80;68.70;;;;;;4996040;28;19945;-58
2022/11/09 03:22:22;;;;;;;;;;;19.80;68.70;;;;;;4994442;28;19921;-59
2022/11/09 03:24:47;;;;;;;;;;;19.80;68.60;;;;;;4995630;28;19926;-59
2022/11/09 03:27:13;;;;;;;;;;;19.80;68.70;;;;;;4994612;28;19981;-59
2022/11/09 03:29:38;;;;;;;;;;;19.80;68.70;;;;;;4995684;28;20040;-59
2022/11/09 03:32:04;;;;;;;;;;;19.80;69.30;;;;;;4994233;28;19933;-59
2022/11/09 03:34:29;;;;;;;;;;;19.80;68.70;;;;;;4994123;28;19922;-58
2022/11/09 03:36:55;;;;;;;;;;;19.80;68.70;;;;;;4995707;28;20016;-59
2022/11/09 03:39:20;;;;;;;;;;;19.80;68.70;;;;;;4995343;28;19925;-58
2022/11/09 03:41:46;;;;;;;;;;;19.80;68.70;;;;;;4995129;28;19921;-59
2022/11/09 03:44:11;;;;;;;;;;;19.80;68.70;;;;;;4995252;28;19930;-59
2022/11/09 03:46:37;;;;;;;;;;;19.80;68.70;;;;;;4995559;28;19925;-59
2022/11/09 03:49:02;;;;;;;;;;;19.80;68.70;;;;;;4994728;28;19926;-59
2022/11/09 03:51:28;;;;;;;;;;;19.80;68.70;;;;;;4994818;28;20028;-59
2022/11/09 03:53:53;;;;;;;;;;;19.80;68.70;;;;;;4995761;28;19922;-58
2022/11/09 03:56:19;;;;;;;;;;;19.80;68.70;;;;;;4994717;28;20369;-58
2022/11/09 03:58:44;;;;;;;;;;;19.80;69.10;;;;;;4995450;28;20381;-58
2022/11/09 04:01:10;;;;;;;;;;;19.70;68.70;;;;;;4995239;28;19929;-58
2022/11/09 04:03:35;;;;;;;;;;;19.80;68.80;;;;;;4994566;28;19937;-58
2022/11/09 04:06:01;;;;;;;;;;;19.70;68.70;;;;;;4995118;28;19929;-58
2022/11/09 04:08:26;;;;;;;;;;;19.70;68.70;;;;;;4994897;28;19949;-59
2022/11/09 04:10:52;;;;;;;;;;;19.70;68.70;;;;;;4994215;28;20301;-58
2022/11/09 04:13:17;;;;;;;;;;;19.70;68.70;;;;;;4994772;28;19926;-58
2022/11/09 04:15:43;;;;;;;;;;;19.70;68.70;;;;;;4995277;28;19934;-58
2022/11/09 04:18:10;;;;;;;;;;;19.70;68.70;;;;;;4994149;28;19925;-58
2022/11/09 04:20:35;;;;;;;;;;;19.70;68.70;;;;;;4995188;28;19957;-58
2022/11/09 04:23:02;;;;;;;;;;;19.70;68.70;;;;;;4995032;28;19925;-58
2022/11/09 04:25:28;;;;;;;;;;;19.70;68.70;;;;;;4992501;28;20342;-58
2022/11/09 04:27:54;;;;;;;;;;;19.70;68.70;;;;;;4994798;28;19926;-58
2022/11/09 04:30:20;;;;;;;;;;;19.70;68.70;;;;;;4994631;28;20404;-59
2022/11/09 04:32:45;;;;;;;;;;;19.70;68.70;;;;;;4994287;28;19925;-58
2022/11/09 04:35:10;;;;;;;;;;;19.70;68.70;;;;;;4994626;28;19926;-58
2022/11/09 04:37:36;;;;;;;;;;;19.70;68.70;;;;;;4993871;28;19926;-58
2022/11/09 04:40:01;;;;;;;;;;;19.70;68.70;;;;;;4994320;28;19930;-58
2022/11/09 04:42:27;;;;;;;;;;;19.70;68.70;;;;;;4994258;28;19969;-59
2022/11/09 04:44:52;;;;;;;;;;;19.70;68.60;;;;;;4994099;28;19937;-58
2022/11/09 04:47:18;;;;;;;;;;;19.70;68.70;;;;;;4993928;28;19926;-58
2022/11/09 04:49:43;;;;;;;;;;;19.70;68.60;;;;;;4994350;28;19933;-58
2022/11/09 04:52:09;;;;;;;;;;;19.70;68.60;;;;;;4993696;28;20293;-59
2022/11/09 04:54:34;;;;;;;;;;;19.70;68.70;;;;;;4994196;28;19925;-58
2022/11/09 04:57:00;;;;;;;;;;;19.70;68.60;;;;;;4994665;28;19925;-58
2022/11/09 04:59:25;;;;;;;;;;;19.70;68.60;;;;;;4993602;28;19930;-58
2022/11/09 05:01:50;;;;;;;;;;;19.70;68.60;;;;;;4993158;28;19926;-58
2022/11/09 05:04:16;;;;;;;;;;;19.70;68.80;;;;;;4993338;28;20266;-58
2022/11/09 05:06:41;;;;;;;;;;;19.70;68.60;;;;;;4993076;28;19936;-58
2022/11/09 05:09:07;;;;;;;;;;;19.80;68.60;;;;;;4993339;28;19925;-59
2022/11/09 05:11:33;;;;;;;;;;;19.80;68.60;;;;;;4993834;28;20345;-59
2022/11/09 05:13:59;;;;;;;;;;;19.80;68.50;;;;;;4993461;28;19926;-59
2022/11/09 05:16:24;;;;;;;;;;;19.80;68.50;;;;;;4994012;28;19952;-58
2022/11/09 05:18:50;;;;;;;;;;;19.80;68.50;;;;;;4994157;28;19926;-58
2022/11/09 05:21:15;;;;;;;;;;;19.80;68.60;;;;;;4992921;28;19933;-59
2022/11/09 05:23:59;;;;;;;;;;;19.80;68.50;;;;;;4993979;28;19934;-58
2022/11/09 05:26:27;;;;;;;;;;;19.80;68.50;;;;;;4993766;28;20032;-58
2022/11/09 05:28:53;;;;;;;;;;;19.80;68.50;;;;;;5008425;28;19953;-58
2022/11/09 05:31:19;;;;;;;;;;;19.80;68.50;;;;;;4993460;28;20281;-59
2022/11/09 05:33:46;;;;;;;;;;;19.90;68.50;;;;;;4993608;28;20016;-59
2022/11/09 05:36:12;;;;;;;;;;;19.90;68.50;;;;;;4992912;28;19930;-59
2022/11/09 05:38:37;;;;;;;;;;;19.90;68.40;;;;;;4993589;28;19930;-58
2022/11/09 05:41:03;;;;;;;;;;;19.90;68.40;;;;;;4993465;28;19933;-59
2022/11/09 05:43:28;;;;;;;;;;;19.90;68.40;;;;;;4993395;28;19976;-59
2022/11/09 05:45:54;;;;;;;;;;;19.90;68.40;;;;;;4993833;28;19930;-59
2022/11/09 05:48:19;;;;;;;;;;;19.90;68.30;;;;;;4993079;28;20393;-59
2022/11/09 05:50:45;;;;;;;;;;;19.90;68.30;;;;;;4993481;28;19926;-60
2022/11/09 05:53:10;;;;;;;;;;;19.90;68.30;;;;;;4993328;28;20032;-59
2022/11/09 05:55:36;;;;;;;;;;;19.90;68.30;;;;;;4993083;28;19981;-59
2022/11/09 05:58:01;;;;;;;;;;;19.90;68.30;;;;;;4993638;28;19929;-59
2022/11/09 06:00:27;;;;;;;;;;;19.90;68.30;;;;;;4993457;28;20394;-59
2022/11/09 06:02:52;;;;;;;;;;;19.90;68.30;;;;;;4993117;28;19936;-59
2022/11/09 06:05:19;;;;;;;;;;;19.90;68.30;;;;;;4992874;28;19926;-60
2022/11/09 06:07:44;;;;;;;;;;;19.90;68.30;;;;;;4993282;28;20396;-59
2022/11/09 06:10:10;;;;;;;;;;;19.90;68.30;;;;;;4992241;28;19926;-59
2022/11/09 06:12:35;;;;;;;;;;;19.90;68.30;;;;;;4995865;28;19961;-59
2022/11/09 06:15:01;;;;;;;;;;;19.90;68.30;;;;;;4997378;28;19922;-61
2022/11/09 06:17:26;;;;;;;;;;;19.90;68.20;;;;;;4996371;28;19926;-59
2022/11/09 06:19:52;;;;;;;;;;;19.90;68.30;;;;;;4997333;28;19952;-59
2022/11/09 06:22:17;;;;;;;;;;;19.90;68.30;;;;;;4996595;28;20063;-58
2022/11/09 06:24:43;;;;;;;;;;;19.90;68.30;;;;;;4996381;28;19972;-58
2022/11/09 06:27:08;;;;;;;;;;;19.90;68.30;;;;;;4997148;28;19973;-58
2022/11/09 06:29:34;;;;;;;;;;;19.90;68.30;;;;;;4997105;28;19952;-58
2022/11/09 06:31:59;;;;;;;;;;;19.90;68.30;;;;;;4996281;28;20060;-59
2022/11/09 06:34:25;;;;;;;;;;;19.90;68.30;;;;;;4996610;28;19929;-59
2022/11/09 06:36:50;;;;;;;;;;;19.90;68.30;;;;;;4996906;28;19933;-58
2022/11/09 06:39:16;;;;;;;;;;;19.90;68.30;;;;;;4995976;28;20020;-58
2022/11/09 06:41:41;;;;;;;;;;;19.90;68.30;;;;;;4997117;28;19926;-58
2022/11/09 06:44:07;;;;;;;;;;;19.90;68.30;;;;;;4996096;28;19926;-58
2022/11/09 06:46:32;;;;;;;;;;;19.90;68.30;;;;;;4996380;28;20393;-58
2022/11/09 06:48:58;;;;;;;;;;;19.90;68.30;;;;;;4996497;28;19981;-59
2022/11/09 06:51:23;;;;;;;;;;;19.90;68.30;;;;;;4995509;28;19926;-58
2022/11/09 06:53:49;;;;;;;;;;;19.90;68.30;;;;;;4996592;28;19921;-58
2022/11/09 06:56:14;;;;;;;;;;;19.90;68.30;;;;;;4996420;28;20004;-58
2022/11/09 06:58:40;;;;;;;;;;;19.90;68.20;;;;;;4996213;28;20008;-58
2022/11/09 07:01:09;;;;;;;;;;;19.90;68.20;;;;;;4996271;28;20409;-58
2022/11/09 07:03:34;;;;;;;;;;;19.90;68.10;;;;;;4996314;28;19988;-58
2022/11/09 07:06:02;;;;;;;;;;;19.90;68.20;;;;;;4995636;28;19965;-58
2022/11/09 07:08:28;;;;;;;;;;;19.90;68.20;;;;;;4995412;28;19952;-58
2022/11/09 07:10:53;;;;;;;;;;;19.90;68.20;;;;;;4996457;28;20021;-59
2022/11/09 07:13:18;;;;;;;;;;;19.90;68.20;;;;;;4995258;28;19929;-58
2022/11/09 07:15:44;;;;;;;;;;;19.90;68.30;;;;;;4996481;28;20273;-59
2022/11/09 07:18:10;;;;;;;;;;;19.90;68.80;;;;;;4992961;28;19930;-58
2022/11/09 07:20:36;;;;;;;;;;;19.90;68.30;;;;;;4990128;28;19941;-58
2022/11/09 07:23:01;;;;;;;;;;;19.90;68.40;;;;;;4993829;28;19926;-58
2022/11/09 07:25:27;;;;;;;;;;;19.90;68.40;;;;;;4994487;28;19925;-58
2022/11/09 07:27:53;;;;;;;;;;;19.90;68.50;;;;;;4997717;28;20389;-58
2022/11/09 07:30:18;;;;;;;;;;;20.00;68.60;;;;;;4989698;28;19932;-59
2022/11/09 07:32:44;;;;;;;;;;;20.00;68.50;;;;;;4995031;28;19957;-59
2022/11/09 07:35:09;;;;;;;;;;;20.00;68.60;;;;;;4994433;28;19926;-59
2022/11/09 07:37:35;;;;;;;;;;;20.00;68.60;;;;;;4995130;28;20431;-59
2022/11/09 07:40:00;;;;;;;;;;;20.00;68.60;;;;;;4994848;28;19932;-59
2022/11/09 07:42:26;;;;;;;;;;;20.10;68.70;;;;;;4994390;28;19926;-59
2022/11/09 07:44:51;;;;;;;;;;;20.00;68.70;;;;;;4992834;28;20062;-58
2022/11/09 07:47:17;;;;;;;;;;;20.00;68.60;;;;;;4988411;28;19926;-59
2022/11/09 07:49:42;;;;;;;;;;;20.10;68.80;;;;;;4993814;28;19930;-59
2022/11/09 07:52:08;;;;;;;;;;;20.10;68.80;;;;;;4995034;28;19989;-60
2022/11/09 07:54:34;;;;;;;;;;;20.10;68.90;;;;;;4994340;28;20395;-59
2022/11/09 07:57:00;;;;;;;;;;;20.10;68.90;;;;;;4994242;28;20381;-58
2022/11/09 07:59:25;;;;;;;;;;;20.20;68.90;;;;;;4995051;28;19988;-59
2022/11/09 08:01:51;;;;;;;;;;;20.20;68.90;;;;;;4994874;28;19926;-59
2022/11/09 08:04:16;;;;;;;;;;;20.20;68.90;;;;;;4994794;28;19930;-59
2022/11/09 08:06:42;;;;;;;;;;;20.20;69.00;;;;;;4995164;28;19930;-58
2022/11/09 08:09:07;;;;;;;;;;;20.20;69.00;;;;;;4994551;28;20459;-58
2022/11/09 08:11:33;;;;;;;;;;;20.20;69.70;;;;;;4994591;28;19973;-58
2022/11/09 08:13:58;;;;;;;;;;;20.30;69.10;;;;;;4995387;28;20332;-58
2022/11/09 08:16:24;;;;;;;;;;;20.30;69.00;;;;;;4994281;28;19926;-59
2022/11/09 08:18:49;;;;;;;;;;;20.30;69.10;;;;;;4994746;28;19964;-58
2022/11/09 08:21:15;;;;;;;;;;;20.30;69.10;;;;;;4997272;28;19925;-58
2022/11/09 08:23:41;;;;;;;;;;;20.30;69.20;;;;;;4994433;28;19926;-59
2022/11/09 08:26:06;;;;;;;;;;;20.30;69.10;;;;;;4994947;28;19926;-58
2022/11/09 08:28:32;;;;;;;;;;;20.30;69.20;;;;;;4994563;28;19933;-58
2022/11/09 08:30:58;;;;;;;;;;;20.40;69.20;;;;;;4994245;28;19930;-58
2022/11/09 08:33:25;;;;;;;;;;;20.40;69.30;;;;;;4994298;28;19929;-58
2022/11/09 08:35:50;;;;;;;;;;;20.40;69.20;;;;;;4994017;28;19977;-58
2022/11/09 08:38:16;;;;;;;;;;;20.40;69.10;;;;;;4993668;28;19968;-58
2022/11/09 08:40:41;;;;;;;;;;;20.40;69.20;;;;;;4994592;28;19926;-59
2022/11/09 08:43:07;;;;;;;;;;;20.40;69.10;;;;;;4994901;28;19926;-59
2022/11/09 08:45:33;;;;;;;;;;;20.40;69.00;;;;;;4993807;28;20382;-59
2022/11/09 08:47:58;;;;;;;;;;;20.40;69.00;;;;;;4994452;28;20312;-59
2022/11/09 08:50:24;;;;;;;;;;;20.50;69.10;;;;;;4992691;28;19968;-59
2022/11/09 08:52:50;;;;;;;;;;;20.40;69.10;;;;;;4993715;28;19930;-59
2022/11/09 08:55:15;;;;;;;;;;;20.50;69.20;;;;;;4993977;28;19922;-59
2022/11/09 08:57:41;;;;;;;;;;;20.50;69.20;;;;;;4994191;28;19926;-59
2022/11/09 09:00:06;;;;;;;;;;;20.50;69.20;;;;;;4993634;28;20012;-59
2022/11/09 09:02:32;;;;;;;;;;;20.50;69.20;;;;;;4993769;28;19933;-59
2022/11/09 09:04:57;;;;;;;;;;;20.50;69.20;;;;;;4992431;28;20020;-59
2022/11/09 09:07:23;;;;;;;;;;;20.50;69.10;;;;;;4993869;28;19976;-59
2022/11/09 09:09:48;;;;;;;;;;;20.50;69.10;;;;;;4993699;28;19926;-59
2022/11/09 09:12:14;;;;;;;;;;;20.50;69.20;;;;;;4993468;28;19925;-59
2022/11/09 09:14:39;;;;;;;;;;;20.50;69.00;;;;;;4992526;28;19922;-59
2022/11/09 09:17:05;;;;;;;;;;;20.50;68.90;;;;;;4994032;28;19948;-60
2022/11/09 09:19:30;;;;;;;;;;;20.50;68.90;;;;;;4993291;28;19926;-60
2022/11/09 09:21:56;;;;;;;;;;;20.50;68.80;;;;;;4994042;28;19925;-59
2022/11/09 09:24:22;;;;;;;;;;;20.50;68.80;;;;;;4993572;28;19930;-59
2022/11/09 09:26:47;;;;;;;;;;;20.50;68.80;;;;;;4993220;28;20008;-59
2022/11/09 09:29:13;;;;;;;;;;;20.50;68.80;;;;;;4993556;28;19926;-60
2022/11/09 09:31:39;;;;;;;;;;;20.50;68.70;;;;;;4993925;28;20377;-60
2022/11/09 09:34:05;;;;;;;;;;;20.50;68.80;;;;;;4993110;28;19926;-59
2022/11/09 09:36:30;;;;;;;;;;;20.50;68.90;;;;;;4993195;28;19926;-60
2022/11/09 09:38:56;;;;;;;;;;;20.50;68.90;;;;;;4993881;28;19922;-60
2022/11/09 09:41:22;;;;;;;;;;;20.50;68.90;;;;;;4992470;28;19988;-59
2022/11/09 09:43:48;;;;;;;;;;;20.50;68.90;;;;;;4992430;28;20301;-59
2022/11/09 09:46:19;;;;;;;;;;;20.50;68.90;;;;;;4992989;28;19944;-60
2022/11/09 09:48:46;;;;;;;;;;;20.50;69.00;;;;;;4992227;28;19930;-60
2022/11/09 09:51:35;;;;;;;;;;;20.50;68.90;;;;;;4993270;28;19926;-60
2022/11/09 09:54:20;;;;;;;;;;;20.50;68.80;;;;;;4989864;28;20376;-60
2022/11/09 09:56:46;;;;;;;;;;;20.50;68.80;;;;;;4990824;28;19929;-59
2022/11/09 09:59:11;;;;;;;;;;;20.50;68.90;;;;;;4992162;28;19948;-59
2022/11/09 10:01:38;;;;;;;;;;;20.50;68.90;;;;;;4993018;28;19933;-59
2022/11/09 10:04:13;;;;;;;;;;;20.50;69.00;;;;;;4993662;28;19929;-60
2022/11/09 10:06:41;;;;;;;;;;;20.50;69.00;;;;;;4993318;28;19985;-59
2022/11/09 10:09:27;;;;;;;;;;;20.50;69.00;;;;;;4992394;28;19926;-59
2022/11/09 10:12:19;;;;;;;;;;;20.50;69.00;;;;;;4991978;28;19937;-59
2022/11/09 10:14:51;;;;;;;;;;;20.50;69.00;;;;;;4985224;28;19925;-60
2022/11/09 10:17:23;;;;;;;;;;;20.50;69.00;;;;;;4990688;28;19926;-60
2022/11/09 10:19:52;;;;;;;;;;;20.50;69.00;;;;;;4993110;28;19926;-59
2022/11/09 10:22:21;;;;;;;;;;;20.50;69.10;;;;;;4992117;28;19973;-59
2022/11/09 10:24:55;;;;;;;;;;;20.50;69.00;;;;;;4993233;28;19984;-59
2022/11/09 10:27:26;;;;;;;;;;;20.50;69.00;;;;;;4993354;28;19952;-59
2022/11/09 10:29:51;;;;;;;;;;;20.50;69.00;;;;;;4991209;28;20044;-59
2022/11/09 10:32:18;;;;;;;;;;;20.50;69.00;;;;;;4991686;28;19932;-60
2022/11/09 10:35:01;;;;;;;;;;;20.40;69.00;;;;;;4993503;28;20037;-60
2022/11/09 10:37:30;;;;;;;;;;;20.40;69.00;;;;;;4991995;28;20337;-59
2022/11/09 10:40:10;;;;;;;;;;;20.40;68.90;;;;;;4992179;28;20001;-59
2022/11/09 10:42:36;;;;;;;;;;;20.40;69.00;;;;;;4988363;28;19926;-59
2022/11/09 10:45:10;;;;;;;;;;;20.40;68.80;;;;;;4991855;28;19984;-59
2022/11/09 10:47:49;;;;;;;;;;;20.40;68.90;;;;;;4992414;28;19932;-59
2022/11/09 10:50:23;;;;;;;;;;;20.40;68.90;;;;;;4979536;28;19997;-60
2022/11/09 10:52:49;;;;;;;;;;;20.40;69.00;;;;;;4993618;28;19925;-59
2022/11/09 10:55:14;;;;;;;;;;;20.40;69.00;;;;;;4987032;28;20012;-59
2022/11/09 10:57:48;;;;;;;;;;;20.40;68.90;;;;;;4991853;28;20463;-59
2022/11/09 11:00:15;;;;;;;;;;;20.40;69.00;;;;;;4994909;28;19925;-59
2022/11/09 11:02:41;;;;;;;;;;;20.40;68.90;;;;;;4996179;28;19980;-59
2022/11/09 11:05:19;;;;;;;;;;;20.40;68.90;;;;;;4994503;28;19926;-59
2022/11/09 11:07:45;;;;;;;;;;;20.40;68.90;;;;;;4995783;28;20823;-60
2022/11/09 11:10:10;;;;;;;;;;;20.40;68.80;;;;;;4995369;28;20012;-59
2022/11/09 11:12:36;;;;;;;;;;;20.40;68.90;;;;;;4995692;28;19991;-59
2022/11/09 11:15:01;;;;;;;;;;;20.40;68.90;;;;;;4996287;28;20012;-59
2022/11/09 11:17:45;;;;;;;;;;;20.40;68.80;;;;;;5000660;28;19925;-58
2022/11/09 11:20:22;;;;;;;;;;;20.40;68.70;;;;;;4994649;28;19929;-59
2022/11/09 11:22:48;;;;;;;;;;;20.40;68.70;;;;;;4986126;28;20271;-59
2022/11/09 11:25:20;;;;;;;;;;;20.40;68.70;;;;;;4997330;28;19932;-59
2022/11/09 11:27:57;;;;;;;;;;;20.40;68.70;;;;;;4994989;28;19934;-59
2022/11/09 11:30:27;;;;;;;;;;;20.40;68.70;;;;;;4994085;28;19926;-59
2022/11/09 11:32:53;;;;;;;;;;;20.40;68.80;;;;;;4998810;28;19926;-59
2022/11/09 11:35:37;;;;;;;;;;;20.40;68.70;;;;;;4976207;28;19922;-59
2022/11/09 11:38:23;;;;;;;;;;;20.40;68.70;;;;;;4976376;28;19926;-59
2022/11/09 11:40:55;;;;;;;;;;;20.40;68.70;;;;;;4990654;28;19922;-59
2022/11/09 11:43:23;;;;;;;;;;;20.40;68.60;;;;;;4991086;28;19933;-59
2022/11/09 11:45:55;;;;;;;;;;;20.40;68.70;;;;;;4976211;28;20052;-59
2022/11/09 11:48:24;;;;;;;;;;;20.40;68.70;;;;;;4975235;28;19935;-59
2022/11/09 11:50:53;;;;;;;;;;;20.40;68.60;;;;;;4975962;28;20021;-59
2022/11/09 11:53:38;;;;;;;;;;;20.40;68.60;;;;;;5000621;28;19926;-59
2022/11/09 11:56:07;;;;;;;;;;;20.30;68.60;;;;;;5030123;28;20288;-59
2022/11/09 11:58:51;;;;;;;;;;;20.30;68.60;;;;;;5014768;28;20016;-59
2022/11/09 12:01:22;;;;;;;;;;;20.30;68.60;;;;;;5014243;28;20371;-59
2022/11/09 12:03:55;;;;;;;;;;;20.30;68.70;;;;;;5014908;28;19929;-59
2022/11/09 12:06:30;;;;;;;;;;;20.30;68.60;;;;;;5028661;28;19922;-59
2022/11/09 12:08:55;;;;;;;;;;;20.30;68.70;;;;;;4992681;28;20033;-59
2022/11/09 12:11:21;;;;;;;;;;;20.30;68.70;;;;;;4994339;28;19937;-60
2022/11/09 12:14:08;;;;;;;;;;;20.30;68.70;;;;;;4994927;28;19933;-59
2022/11/09 12:16:39;;;;;;;;;;;20.30;68.80;;;;;;5001608;28;19969;-59
2022/11/09 12:19:28;;;;;;;;;;;20.30;68.80;;;;;;5001653;28;19926;-59
2022/11/09 12:21:56;;;;;;;;;;;20.30;68.80;;;;;;5003285;28;19965;-59
2022/11/09 12:24:26;;;;;;;;;;;20.30;68.80;;;;;;5018185;28;19929;-59
2022/11/09 12:27:11;;;;;;;;;;;20.30;68.90;;;;;;5019201;28;19925;-59
2022/11/09 12:29:39;;;;;;;;;;;20.30;68.80;;;;;;5003559;28;19926;-59
2022/11/09 12:32:10;;;;;;;;;;;20.30;68.90;;;;;;5001145;28;19932;-60
2022/11/09 12:34:36;;;;;;;;;;;20.30;68.90;;;;;;5018820;28;19980;-59
2022/11/09 12:37:17;;;;;;;;;;;20.30;68.80;;;;;;5004100;28;19929;-59
2022/11/09 12:39:48;;;;;;;;;;;20.30;68.80;;;;;;4993489;28;19968;-59
2022/11/09 12:42:32;;;;;;;;;;;20.30;68.80;;;;;;5005312;28;19962;-59
2022/11/09 12:45:26;;;;;;;;;;;20.30;68.90;;;;;;4994144;28;19925;-59
2022/11/09 12:47:53;;;;;;;;;;;20.30;68.90;;;;;;4993680;28;19926;-59
2022/11/09 12:50:19;;;;;;;;;;;20.30;68.80;;;;;;4993582;28;19969;-59
2022/11/09 12:52:46;;;;;;;;;;;20.40;68.90;;;;;;4993476;28;19973;-59
2022/11/09 12:55:12;;;;;;;;;;;20.30;68.80;;;;;;4992769;28;20289;-59
2022/11/09 12:57:37;;;;;;;;;;;20.30;68.80;;;;;;4993642;28;19937;-59
2022/11/09 13:00:03;;;;;;;;;;;20.30;68.80;;;;;;4994478;28;19997;-59
2022/11/09 13:02:30;;;;;;;;;;;20.40;68.80;;;;;;4993988;28;19950;-59
2022/11/09 13:04:59;;;;;;;;;;;20.40;68.80;;;;;;4993558;28;20404;-59
2022/11/09 13:07:31;;;;;;;;;;;20.40;68.80;;;;;;4992670;28;19953;-59
2022/11/09 13:09:56;;;;;;;;;;;20.40;68.70;;;;;;4994069;28;19932;-59
2022/11/09 13:12:41;;;;;;;;;;;20.50;68.80;;;;;;4992143;28;19925;-59
2022/11/09 13:15:20;;;;;;;;;;;20.50;68.80;;;;;;4994036;28;20017;-59
2022/11/09 13:17:56;;;;;;;;;;;20.50;68.80;;;;;;4992738;28;19952;-59
2022/11/09 13:20:34;;;;;;;;;;;20.50;68.80;;;;;;4993751;28;19926;-59
2022/11/09 13:23:00;;;;;;;;;;;20.50;68.70;;;;;;4993273;28;19933;-59
2022/11/09 13:25:33;;;;;;;;;;;20.50;68.70;;;;;;4992905;28;19972;-59
2022/11/09 13:27:58;;;;;;;;;;;20.50;68.70;;;;;;4992903;28;19926;-59
2022/11/09 13:30:24;;;;;;;;;;;20.50;68.80;;;;;;4993729;28;19933;-58
2022/11/09 13:33:05;;;;;;;;;;;20.50;68.80;;;;;;4993049;28;20284;-58
2022/11/09 13:35:39;;;;;;;;;;;20.50;68.70;;;;;;4993604;28;19926;-58
2022/11/09 13:38:13;;;;;;;;;;;20.50;68.70;;;;;;4993699;28;19937;-59
2022/11/09 13:40:39;;;;;;;;;;;20.50;68.80;;;;;;4993303;28;19933;-59
2022/11/09 13:43:11;;;;;;;;;;;20.50;68.70;;;;;;4992543;28;19933;-58
2022/11/09 13:45:45;;;;;;;;;;;20.50;68.70;;;;;;4993906;28;19992;-59
2022/11/09 13:48:29;;;;;;;;;;;20.50;68.70;;;;;;4992533;28;19938;-59
2022/11/09 13:50:58;;;;;;;;;;;20.50;68.60;;;;;;4986534;28;20258;-59
2022/11/09 13:53:29;;;;;;;;;;;20.50;68.60;;;;;;4989811;28;19977;-59
2022/11/09 13:55:54;;;;;;;;;;;20.50;68.60;;;;;;4991762;28;20332;-59
2022/11/09 13:58:24;;;;;;;;;;;20.50;68.60;;;;;;4992053;28;19930;-59
2022/11/09 14:00:49;;;;;;;;;;;20.50;68.70;;;;;;4998602;28;19929;-59
2022/11/09 14:03:24;;;;;;;;;;;20.50;68.60;;;;;;4992457;28;19926;-59
2022/11/09 14:05:51;;;;;;;;;;;20.50;68.50;;;;;;5001979;28;20008;-59
2022/11/09 14:08:19;;;;;;;;;;;20.40;68.40;;;;;;5000650;28;19926;-60
2022/11/09 14:10:53;;;;;;;;;;;20.50;68.70;;;;;;4993526;28;20288;-59
2022/11/09 14:13:25;;;;;;;;;;;20.40;68.60;;;;;;4993462;28;19926;-60
2022/11/09 14:15:52;;;;;;;;;;;20.40;68.60;;;;;;4992686;28;19921;-59
2022/11/09 14:18:34;;;;;;;;;;;20.40;68.60;;;;;;4992012;28;19926;-59